Carbonear, Canada
Current Conditions -  °F | °C
As of 11:00 AM on Thursday 23 Oct 2014 (Local Time) from CYYT Reporting Station
Broken Clouds Broken Clouds  
Wind Chill: 43°   Ceiling: 17000
Heat Index: 46°   Visibility: 15mi
Dew Point: 39°   Wind: 7mph
Humidity: 76%   Direction: 100°E
Pressure: 30.4"   Gusts: NA
Location:  47.73°N, 53.25°W
Report Text: CYYT 231300Z 10006KT 15SM FEW018 BKN170 BKN220 08/04 A3040 RMK SC2AC3CI2 SLP298
Loading
Personal Weather Stations






























Interactive Weather Map New forecast layout! Learn more

10-Day Weather Forecast

Advertisements
Track Severe Weather on mobile